Time;durP1;ratioP1;P1;durP2;ratioP2;P2;SDS_P1;SDS_P2;PMS_P1;PMS_P2;Temp;Humidity;BMP_temperature;BMP_pressure;BME280_temperature;BME280_humidity;BME280_pressure;Samples;Min_cycle;Max_cycle;Signal;HPM_P1;HPM_P2
2024/01/08 00:01:29;0.00;0.00;0.62;0.00;0.00;0.62;1.67;1.13;;;18.30;21.50;;;;;;2253313;61;20947;-60
2024/01/08 00:04:13;0.00;0.00;0.62;0.00;0.00;0.62;1.67;1.00;;;18.30;21.50;;;;;;2253309;61;20363;-60
2024/01/08 00:06:58;0.00;0.00;0.62;0.00;0.00;0.62;1.60;1.10;;;18.30;21.50;;;;;;2253068;61;20386;-61
2024/01/08 00:09:43;0.00;0.00;0.62;0.00;0.00;0.62;2.13;1.40;;;18.30;21.50;;;;;;2253354;61;20375;-58
2024/01/08 00:12:29;0.00;0.00;0.62;0.00;0.00;0.62;2.33;1.20;;;18.30;21.50;;;;;;2252583;61;20402;-55
2024/01/08 00:15:14;0.00;0.00;0.62;0.00;0.00;0.62;1.90;1.10;;;18.30;21.50;;;;;;2253418;61;21030;-59
2024/01/08 00:17:58;0.00;0.00;0.62;0.00;0.00;0.62;2.10;1.10;;;18.30;21.50;;;;;;2252820;61;20407;-58
2024/01/08 00:20:43;0.00;0.00;0.62;0.00;0.00;0.62;1.73;1.20;;;18.30;21.50;;;;;;2252353;61;20639;-56
2024/01/08 00:23:28;0.00;0.00;0.62;0.00;0.00;0.62;1.60;1.07;;;18.30;21.50;;;;;;2252940;61;20428;-56
2024/01/08 00:26:12;0.00;0.00;0.62;0.00;0.00;0.62;1.83;1.30;;;18.30;21.50;;;;;;2253290;61;20430;-59
2024/01/08 00:28:59;0.00;0.00;0.62;0.00;0.00;0.62;1.70;1.33;;;18.30;21.50;;;;;;2252887;61;20381;-58
2024/01/08 00:31:43;0.00;0.00;0.62;0.00;0.00;0.62;1.80;1.10;;;18.30;22.00;;;;;;2252844;61;20449;-57
2024/01/08 00:34:28;0.00;0.00;0.62;0.00;0.00;0.62;1.70;1.00;;;18.30;21.50;;;;;;2253341;61;20390;-56
2024/01/08 00:37:12;0.00;0.00;0.62;0.00;0.00;0.62;1.97;1.10;;;18.30;21.50;;;;;;2253114;61;20362;-54
2024/01/08 00:39:57;0.00;0.00;0.62;0.00;0.00;0.62;1.70;1.10;;;18.30;21.50;;;;;;2253381;61;20394;-58
2024/01/08 00:42:42;0.00;0.00;0.62;0.00;0.00;0.62;1.90;1.30;;;18.30;21.50;;;;;;2252659;61;20406;-57
2024/01/08 00:45:28;0.00;0.00;0.62;0.00;0.00;0.62;2.23;1.17;;;18.30;21.50;;;;;;2253106;61;20906;-60
2024/01/08 00:48:13;0.00;0.00;0.62;0.00;0.00;0.62;1.73;1.10;;;18.30;21.50;;;;;;2253151;61;20371;-57
2024/01/08 00:50:57;0.00;0.00;0.62;0.00;0.00;0.62;2.50;1.50;;;18.30;21.50;;;;;;2252986;61;20845;-56
2024/01/08 00:53:42;0.00;0.00;0.62;0.00;0.00;0.62;2.57;1.03;;;18.30;21.50;;;;;;2252877;61;20426;-59
2024/01/08 00:56:26;0.00;0.00;0.62;0.00;0.00;0.62;1.57;1.07;;;18.30;21.50;;;;;;2253305;61;20768;-59
2024/01/08 00:59:11;0.00;0.00;0.62;0.00;0.00;0.62;1.60;1.10;;;18.30;21.50;;;;;;2253017;61;20362;-59
2024/01/08 01:01:57;0.00;0.00;0.62;0.00;0.00;0.62;1.80;1.00;;;18.30;21.50;;;;;;2252528;61;20386;-56
2024/01/08 01:04:41;0.00;0.00;0.62;0.00;0.00;0.62;1.80;1.10;;;18.30;21.50;;;;;;2252658;61;20406;-59
2024/01/08 01:07:27;0.00;0.00;0.62;0.00;0.00;0.62;1.70;1.00;;;18.30;21.50;;;;;;2252871;61;20422;-57
2024/01/08 01:10:12;0.00;0.00;0.62;0.00;0.00;0.62;1.97;1.13;;;18.30;21.50;;;;;;2253464;61;20469;-59
2024/01/08 01:12:56;0.00;0.00;0.62;0.00;0.00;0.62;1.60;1.00;;;18.20;21.40;;;;;;2252284;61;20421;-59
2024/01/08 01:15:41;0.00;0.00;0.62;0.00;0.00;0.62;1.93;1.20;;;18.20;21.40;;;;;;2253169;61;20414;-60
2024/01/08 01:18:27;0.00;0.00;0.62;0.00;0.00;0.62;1.50;1.00;;;18.30;21.50;;;;;;2253311;61;20379;-55
2024/01/08 01:21:20;0.00;0.00;0.62;0.00;0.00;0.62;2.07;1.13;;;18.20;22.00;;;;;;2252738;61;20406;-60
2024/01/08 01:24:05;0.00;0.00;0.62;0.00;0.00;0.62;1.80;1.17;;;18.20;21.40;;;;;;2252758;61;20378;-65
2024/01/08 01:26:50;0.00;0.00;0.62;0.00;0.00;0.62;1.63;1.07;;;18.20;21.40;;;;;;2253109;61;20394;-55
2024/01/08 01:29:35;0.00;0.00;0.62;0.00;0.00;0.62;2.27;1.20;;;18.30;21.50;;;;;;2253885;61;20422;-57
2024/01/08 01:32:20;0.00;0.00;0.62;0.00;0.00;0.62;2.00;1.17;;;18.20;21.40;;;;;;2253268;61;20378;-58
2024/01/08 01:35:07;0.00;0.00;0.62;0.00;0.00;0.62;2.03;1.37;;;18.20;21.40;;;;;;2253401;61;20451;-57
2024/01/08 01:37:52;0.00;0.00;0.62;0.00;0.00;0.62;1.60;1.10;;;18.20;21.40;;;;;;2253823;61;20387;-59
2024/01/08 01:40:36;0.00;0.00;0.62;0.00;0.00;0.62;1.70;1.20;;;18.20;21.40;;;;;;2253818;61;20923;-59
2024/01/08 01:43:23;0.00;0.00;0.62;0.00;0.00;0.62;1.90;1.20;;;18.20;21.40;;;;;;2252941;61;20903;-58
2024/01/08 01:46:22;0.00;0.00;0.62;0.00;0.00;0.62;2.40;1.30;;;18.20;21.40;;;;;;2254031;61;20426;-56
2024/01/08 01:49:10;0.00;0.00;0.62;0.00;0.00;0.62;1.50;1.10;;;18.20;21.40;;;;;;2253438;61;20359;-59
2024/01/08 01:51:56;0.00;0.00;0.62;0.00;0.00;0.62;1.63;1.00;;;18.20;21.40;;;;;;2253612;61;20460;-58
2024/01/08 01:54:42;0.00;0.00;0.62;0.00;0.00;0.62;2.07;1.50;;;18.20;21.40;;;;;;2253556;61;20370;-58
2024/01/08 01:57:27;0.00;0.00;0.62;0.00;0.00;0.62;1.97;1.37;;;18.20;21.40;;;;;;2253346;61;20374;-56
2024/01/08 02:00:14;0.00;0.00;0.62;0.00;0.00;0.62;1.73;1.10;;;18.20;21.40;;;;;;2253850;61;20366;-53
2024/01/08 02:02:59;0.00;0.00;0.62;0.00;0.00;0.62;1.73;1.10;;;18.20;21.40;;;;;;2253310;61;20378;-57
2024/01/08 02:05:44;0.00;0.00;0.62;0.00;0.00;0.62;2.30;1.20;;;18.20;21.40;;;;;;2253546;61;20463;-55
2024/01/08 02:08:30;0.00;0.00;0.62;0.00;0.00;0.62;1.70;1.10;;;18.20;21.30;;;;;;2254031;61;20769;-57
2024/01/08 02:11:15;0.00;0.00;0.62;0.00;0.00;0.62;1.97;1.30;;;18.20;21.40;;;;;;2253475;61;20391;-58
2024/01/08 02:14:00;0.00;0.00;0.62;0.00;0.00;0.62;1.83;1.20;;;18.20;21.30;;;;;;2253587;61;20374;-55
2024/01/08 02:16:45;0.00;0.00;0.62;0.00;0.00;0.62;2.27;1.53;;;18.20;21.30;;;;;;2686495;45;20387;-59
2024/01/08 02:19:29;0.00;0.00;0.62;0.00;0.00;0.62;1.60;1.00;;;18.20;21.30;;;;;;2249687;61;20900;-56
2024/01/08 02:22:14;0.00;0.00;0.62;0.00;0.00;0.62;2.03;1.40;;;18.20;21.30;;;;;;2249629;61;20387;-53
2024/01/08 02:25:00;0.00;0.00;0.62;0.00;0.00;0.62;1.83;1.27;;;18.20;21.30;;;;;;2252972;61;20907;-57
2024/01/08 02:27:45;0.00;0.00;0.62;0.00;0.00;0.62;1.90;1.30;;;18.20;21.30;;;;;;2250885;61;20578;-56
2024/01/08 02:30:30;0.00;0.00;0.62;0.00;0.00;0.62;1.70;1.30;;;18.20;21.30;;;;;;2253781;61;20407;-57
2024/01/08 02:33:14;0.00;0.00;0.62;0.00;0.00;0.62;1.60;1.17;;;18.20;21.30;;;;;;2252942;61;20378;-54
2024/01/08 02:36:00;0.00;0.00;0.62;0.00;0.00;0.62;2.37;1.53;;;18.20;21.30;;;;;;2253964;61;20440;-55
2024/01/08 02:38:44;0.00;0.00;0.62;0.00;0.00;0.62;1.50;1.10;;;18.20;21.30;;;;;;2253705;61;20422;-54
2024/01/08 02:41:30;0.00;0.00;0.62;0.00;0.00;0.62;1.90;1.40;;;18.20;21.30;;;;;;2253462;61;20446;-57
2024/01/08 02:44:15;0.00;0.00;0.62;0.00;0.00;0.62;1.80;1.30;;;18.20;21.30;;;;;;2253753;61;20469;-56
2024/01/08 02:47:00;0.00;0.00;0.62;0.00;0.00;0.62;1.70;1.07;;;18.10;21.20;;;;;;2254140;61;20406;-56
2024/01/08 02:49:44;0.00;0.00;0.62;0.00;0.00;0.62;2.67;1.70;;;18.10;21.20;;;;;;2253525;61;20355;-57
2024/01/08 02:52:29;0.00;0.00;0.62;0.00;0.00;0.62;1.80;1.10;;;18.10;21.20;;;;;;2253483;61;20366;-56
2024/01/08 02:55:14;0.00;0.00;0.62;0.00;0.00;0.62;2.13;1.40;;;18.10;21.80;;;;;;2253306;61;20435;-56
2024/01/08 02:58:03;0.00;0.00;0.62;0.00;0.00;0.62;1.80;1.10;;;18.10;21.20;;;;;;2253120;61;20483;-54
2024/01/08 03:00:48;0.00;0.00;0.62;0.00;0.00;0.62;1.83;1.23;;;18.10;21.20;;;;;;2253853;61;21002;-56
2024/01/08 03:03:33;0.00;0.00;0.62;0.00;0.00;0.62;2.70;1.00;;;18.10;21.20;;;;;;2253008;61;20440;-56
2024/01/08 03:06:17;0.00;0.00;0.62;0.00;0.00;0.62;2.20;1.37;;;18.10;21.20;;;;;;2253572;61;20446;-58
2024/01/08 03:09:02;0.00;0.00;0.62;0.00;0.00;0.62;2.13;1.40;;;18.10;21.20;;;;;;2253515;61;20406;-58
2024/01/08 03:11:47;0.00;0.00;0.62;0.00;0.00;0.62;1.80;1.37;;;18.10;21.20;;;;;;2252664;61;20406;-58
2024/01/08 03:14:33;0.00;0.00;0.62;0.00;0.00;0.62;1.90;1.27;;;18.10;21.20;;;;;;2253782;61;20378;-58
2024/01/08 03:17:17;0.00;0.00;0.62;0.00;0.00;0.62;2.53;1.40;;;18.10;21.20;;;;;;2253528;61;20363;-62
2024/01/08 03:20:04;0.00;0.00;0.62;0.00;0.00;0.62;1.83;1.27;;;18.10;21.20;;;;;;2253533;61;20367;-54
2024/01/08 03:22:50;0.00;0.00;0.62;0.00;0.00;0.62;1.97;1.33;;;18.10;21.20;;;;;;2253355;61;20405;-58
2024/01/08 03:25:34;0.00;0.00;0.62;0.00;0.00;0.62;1.80;1.10;;;18.10;21.20;;;;;;2253221;61;20463;-62
2024/01/08 03:28:19;0.00;0.00;0.62;0.00;0.00;0.62;2.73;1.70;;;18.10;21.20;;;;;;2253505;61;20474;-54
2024/01/08 03:31:05;0.00;0.00;0.62;0.00;0.00;0.62;1.90;1.17;;;18.10;21.20;;;;;;2253688;61;20522;-54
2024/01/08 03:33:49;0.00;0.00;0.62;0.00;0.00;0.62;1.80;1.20;;;18.10;21.20;;;;;;2252593;61;20403;-62
2024/01/08 03:36:34;0.00;0.00;0.62;0.00;0.00;0.62;1.70;1.10;;;18.10;21.20;;;;;;2253656;61;20370;-57
2024/01/08 03:39:18;0.00;0.00;0.62;0.00;0.00;0.62;1.80;1.13;;;18.10;21.20;;;;;;2253548;61;20363;-60
2024/01/08 03:42:04;0.00;0.00;0.62;0.00;0.00;0.62;2.60;1.40;;;18.10;21.20;;;;;;2253327;61;20923;-54
2024/01/08 03:44:49;0.00;0.00;0.62;0.00;0.00;0.62;1.93;1.33;;;18.10;21.20;;;;;;2253494;61;20422;-58
2024/01/08 03:47:35;0.00;0.00;0.62;0.00;0.00;0.62;2.43;1.20;;;18.10;21.20;;;;;;2253100;61;20399;-59
2024/01/08 03:50:20;0.00;0.00;0.62;0.00;0.00;0.62;1.90;1.30;;;18.10;21.20;;;;;;2253370;61;20398;-56
2024/01/08 03:53:04;0.00;0.00;0.62;0.00;0.00;0.62;1.63;1.23;;;18.10;21.10;;;;;;2253178;61;21086;-55
2024/01/08 03:55:49;0.00;0.00;0.62;0.00;0.00;0.62;2.23;1.43;;;18.10;21.10;;;;;;2253179;61;20366;-56
2024/01/08 03:58:36;0.00;0.00;0.62;0.00;0.00;0.62;2.83;1.60;;;18.10;21.10;;;;;;2253456;61;20617;-55
2024/01/08 04:01:20;0.00;0.00;0.62;0.00;0.00;0.62;1.80;1.20;;;18.10;21.10;;;;;;2253475;61;20431;-59
2024/01/08 04:04:07;0.00;0.00;0.62;0.00;0.00;0.62;1.77;1.00;;;18.10;21.10;;;;;;2253302;61;20397;-59
2024/01/08 04:06:52;0.00;0.00;0.62;0.00;0.00;0.62;1.73;1.10;;;18.10;21.10;;;;;;2253444;61;20390;-57
2024/01/08 04:09:38;0.00;0.00;0.62;0.00;0.00;0.62;1.70;1.13;;;18.10;21.10;;;;;;2253338;61;20362;-57
2024/01/08 04:12:22;0.00;0.00;0.62;0.00;0.00;0.62;2.37;1.40;;;18.10;21.10;;;;;;2252688;61;20616;-59
2024/01/08 04:15:08;0.00;0.00;0.62;0.00;0.00;0.62;1.83;1.20;;;18.10;21.10;;;;;;2253469;61;20432;-58
2024/01/08 04:17:53;0.00;0.00;0.62;0.00;0.00;0.62;2.57;1.43;;;18.10;21.10;;;;;;2253058;61;20379;-55
2024/01/08 04:20:40;0.00;0.00;0.62;0.00;0.00;0.62;2.53;1.37;;;18.10;21.10;;;;;;2253333;61;20795;-58
2024/01/08 04:23:24;0.00;0.00;0.62;0.00;0.00;0.62;1.70;1.23;;;18.10;21.10;;;;;;2253074;61;20367;-57
2024/01/08 04:26:15;0.00;0.00;0.62;0.00;0.00;0.62;1.50;1.00;;;18.10;21.10;;;;;;2252831;61;20466;-57
2024/01/08 04:29:00;0.00;0.00;0.62;0.00;0.00;0.62;1.80;1.23;;;18.10;21.10;;;;;;2253436;61;20375;-57
2024/01/08 04:31:44;0.00;0.00;0.62;0.00;0.00;0.62;1.93;1.33;;;18.10;21.10;;;;;;2252535;61;20452;-56
2024/01/08 04:34:29;0.00;0.00;0.62;0.00;0.00;0.62;2.40;1.37;;;18.10;21.10;;;;;;2253514;61;20743;-58
2024/01/08 04:37:15;0.00;0.00;0.62;0.00;0.00;0.62;1.80;1.30;;;18.10;21.10;;;;;;2253458;61;20934;-59
2024/01/08 04:40:00;0.00;0.00;0.62;0.00;0.00;0.62;2.27;1.47;;;18.00;21.00;;;;;;2253207;61;20366;-58
2024/01/08 04:42:44;0.00;0.00;0.62;0.00;0.00;0.62;1.50;1.07;;;18.10;21.10;;;;;;2252964;61;20357;-57
2024/01/08 04:45:30;0.00;0.00;0.62;0.00;0.00;0.62;2.10;1.33;;;18.00;21.00;;;;;;2252703;61;20406;-57
2024/01/08 04:48:14;0.00;0.00;0.62;0.00;0.00;0.62;2.83;1.50;;;18.00;21.00;;;;;;2253367;61;20386;-57
2024/01/08 04:50:59;0.00;0.00;0.62;0.00;0.00;0.62;2.77;1.40;;;18.00;21.00;;;;;;2253373;61;20403;-58
2024/01/08 04:53:45;0.00;0.00;0.62;0.00;0.00;0.62;2.00;1.27;;;18.00;21.00;;;;;;2252440;61;20386;-58
2024/01/08 04:56:29;0.00;0.00;0.62;0.00;0.00;0.62;2.50;1.40;;;18.00;21.00;;;;;;2253631;61;20828;-56
2024/01/08 04:59:14;0.00;0.00;0.62;0.00;0.00;0.62;2.30;1.20;;;18.00;21.00;;;;;;2252921;61;20623;-55
2024/01/08 05:01:58;0.00;0.00;0.62;0.00;0.00;0.62;1.67;1.00;;;18.00;21.00;;;;;;2252832;61;20433;-61
2024/01/08 05:04:43;0.00;0.00;0.62;0.00;0.00;0.62;2.20;1.40;;;18.00;21.00;;;;;;2254064;61;20962;-58
2024/01/08 05:07:28;0.00;0.00;0.62;0.00;0.00;0.62;1.60;1.17;;;18.00;21.00;;;;;;2254066;61;20394;-58
2024/01/08 05:10:14;0.00;0.00;0.62;0.00;0.00;0.62;2.13;1.27;;;18.00;21.00;;;;;;2253886;61;21003;-56
2024/01/08 05:12:59;0.00;0.00;0.62;0.00;0.00;0.62;1.90;1.10;;;18.00;21.00;;;;;;2253536;61;20373;-57
2024/01/08 05:15:43;0.00;0.00;0.62;0.00;0.00;0.62;2.00;1.40;;;18.00;21.00;;;;;;2253842;61;20383;-59
2024/01/08 05:18:29;0.00;0.00;0.62;0.00;0.00;0.62;1.90;1.40;;;18.00;21.00;;;;;;2253984;61;20358;-58
2024/01/08 05:21:14;0.00;0.00;0.62;0.00;0.00;0.62;2.17;1.33;;;18.00;21.00;;;;;;2253976;61;21000;-58
2024/01/08 05:23:59;0.00;0.00;0.62;0.00;0.00;0.62;1.80;0.97;;;18.00;21.00;;;;;;2253857;61;20425;-58
2024/01/08 05:26:44;0.00;0.00;0.62;0.00;0.00;0.62;1.80;1.20;;;18.00;21.00;;;;;;2254257;61;20383;-56
2024/01/08 05:29:29;0.00;0.00;0.62;0.00;0.00;0.62;2.00;1.20;;;18.00;21.00;;;;;;2254014;61;20414;-56
2024/01/08 05:32:13;0.00;0.00;0.62;0.00;0.00;0.62;1.93;1.20;;;18.00;21.00;;;;;;2253259;61;20438;-58
2024/01/08 05:34:58;0.00;0.00;0.62;0.00;0.00;0.62;1.70;1.17;;;18.00;21.00;;;;;;2254015;61;20375;-59
2024/01/08 05:37:43;0.00;0.00;0.62;0.00;0.00;0.62;1.73;1.00;;;18.00;21.00;;;;;;2253980;61;20362;-56
2024/01/08 05:40:28;0.00;0.00;0.62;0.00;0.00;0.62;1.60;1.00;;;18.00;21.00;;;;;;2254271;61;20417;-58
2024/01/08 05:43:14;0.00;0.00;0.62;0.00;0.00;0.62;1.70;1.03;;;18.00;20.90;;;;;;2253579;61;20374;-57
2024/01/08 05:45:58;0.00;0.00;0.62;0.00;0.00;0.62;1.73;1.10;;;18.00;21.00;;;;;;2253717;61;20514;-59
2024/01/08 05:48:43;0.00;0.00;0.62;0.00;0.00;0.62;1.83;1.17;;;18.00;20.90;;;;;;2254089;61;20371;-55
2024/01/08 05:51:28;0.00;0.00;0.62;0.00;0.00;0.62;1.77;1.10;;;18.00;20.90;;;;;;2253975;61;20457;-55
2024/01/08 05:54:13;0.00;0.00;0.62;0.00;0.00;0.62;1.83;1.20;;;18.00;20.90;;;;;;2253124;61;20410;-57
2024/01/08 05:56:57;0.00;0.00;0.62;0.00;0.00;0.62;2.63;1.33;;;18.00;20.90;;;;;;2253772;61;20938;-57
2024/01/08 05:59:43;0.00;0.00;0.62;0.00;0.00;0.62;2.17;1.00;;;17.90;20.90;;;;;;2254013;61;20597;-58
2024/01/08 06:02:28;0.00;0.00;0.62;0.00;0.00;0.62;2.17;1.10;;;17.90;20.80;;;;;;2250054;61;20498;-58
2024/01/08 06:05:13;0.00;0.00;0.62;0.00;0.00;0.62;2.07;1.37;;;17.90;20.90;;;;;;2253839;61;20868;-58
2024/01/08 06:08:00;0.00;0.00;0.62;0.00;0.00;0.62;2.10;1.37;;;17.90;20.80;;;;;;2253671;61;20386;-56
2024/01/08 06:10:47;0.00;0.00;0.62;0.00;0.00;0.62;2.00;1.43;;;17.90;20.80;;;;;;2253800;61;20422;-54
2024/01/08 06:13:32;0.00;0.00;0.62;0.00;0.00;0.62;1.80;1.20;;;17.90;20.80;;;;;;2253602;61;20398;-57
2024/01/08 06:16:18;0.00;0.00;0.62;0.00;0.00;0.62;2.07;1.30;;;17.90;20.80;;;;;;2253572;61;20426;-54
2024/01/08 06:19:02;0.00;0.00;0.62;0.00;0.00;0.62;2.00;1.37;;;17.90;21.30;;;;;;2254086;61;20367;-58
2024/01/08 06:21:47;0.00;0.00;0.62;0.00;0.00;0.62;2.00;1.40;;;17.90;20.80;;;;;;2253705;61;20390;-53
2024/01/08 06:24:32;0.00;0.00;0.62;0.00;0.00;0.62;1.80;1.20;;;17.90;20.80;;;;;;2253490;61;20367;-58
2024/01/08 06:27:16;0.00;0.00;0.62;0.00;0.00;0.62;2.33;1.20;;;17.90;20.70;;;;;;2253802;61;20375;-57
2024/01/08 06:30:01;0.00;0.00;0.62;0.00;0.00;0.62;1.70;1.23;;;17.90;20.70;;;;;;2253488;61;20449;-55
2024/01/08 06:32:47;0.00;0.00;0.62;0.00;0.00;0.62;2.33;1.50;;;17.90;20.70;;;;;;2253515;61;20371;-57
2024/01/08 06:35:32;0.00;0.00;0.62;0.00;0.00;0.62;1.93;1.33;;;17.90;20.70;;;;;;2253800;61;20378;-56
2024/01/08 06:38:17;0.00;0.00;0.62;0.00;0.00;0.62;1.70;0.90;;;17.90;20.70;;;;;;2253650;61;20442;-57
2024/01/08 06:41:02;0.00;0.00;0.62;0.00;0.00;0.62;2.40;1.50;;;17.90;20.70;;;;;;2253131;61;20383;-59
2024/01/08 06:43:46;0.00;0.00;0.62;0.00;0.00;0.62;1.90;1.20;;;17.90;20.70;;;;;;2253478;61;20891;-60
2024/01/08 06:46:31;0.00;0.00;0.62;0.00;0.00;0.62;1.83;1.10;;;17.90;20.70;;;;;;2253399;61;20481;-59
2024/01/08 06:49:17;0.00;0.00;0.62;0.00;0.00;0.62;1.70;1.13;;;17.90;20.70;;;;;;2253783;61;20363;-57
2024/01/08 06:52:02;0.00;0.00;0.62;0.00;0.00;0.62;2.30;1.53;;;17.90;20.70;;;;;;2252737;61;20391;-56
2024/01/08 06:54:46;0.00;0.00;0.62;0.00;0.00;0.62;2.20;1.20;;;17.90;20.70;;;;;;2253802;61;20418;-60
2024/01/08 06:57:31;0.00;0.00;0.62;0.00;0.00;0.62;1.90;1.30;;;17.80;20.60;;;;;;2253753;61;20382;-59
2024/01/08 07:00:18;0.00;0.00;0.62;0.00;0.00;0.62;1.77;0.90;;;17.90;20.70;;;;;;2253532;61;20406;-57
2024/01/08 07:03:03;0.00;0.00;0.62;0.00;0.00;0.62;2.10;1.40;;;17.80;20.50;;;;;;2253188;61;20366;-57
2024/01/08 07:05:49;0.00;0.00;0.62;0.00;0.00;0.62;2.00;1.30;;;17.80;20.50;;;;;;2253229;61;20907;-57
2024/01/08 07:08:34;0.00;0.00;0.62;0.00;0.00;0.62;1.90;1.30;;;17.80;20.50;;;;;;2253545;61;20950;-57
2024/01/08 07:11:22;0.00;0.00;0.62;0.00;0.00;0.62;1.80;1.13;;;17.80;20.50;;;;;;2253686;61;20467;-66
2024/01/08 07:14:08;0.00;0.00;0.62;0.00;0.00;0.62;1.50;1.10;;;17.80;20.50;;;;;;2253635;61;20452;-58
2024/01/08 07:16:52;0.00;0.00;0.62;0.00;0.00;0.62;2.00;1.10;;;17.80;20.50;;;;;;2576251;45;20359;-59
2024/01/08 07:19:37;0.00;0.00;0.62;0.00;0.00;0.62;1.87;1.17;;;17.80;20.50;;;;;;2249888;61;20418;-56
2024/01/08 07:22:23;0.00;0.00;0.62;0.00;0.00;0.62;1.77;1.20;;;17.80;20.50;;;;;;2249090;61;20916;-57
2024/01/08 07:25:07;0.00;0.00;0.62;0.00;0.00;0.62;2.20;1.30;;;17.80;20.50;;;;;;2249488;61;20387;-57
2024/01/08 07:27:52;0.00;0.00;0.62;0.00;0.00;0.62;2.20;1.13;;;17.80;20.50;;;;;;2249541;61;20399;-57
2024/01/08 07:30:38;0.00;0.00;0.62;0.00;0.00;0.62;1.80;1.20;;;17.80;20.50;;;;;;2249232;61;20475;-56
2024/01/08 07:33:23;0.00;0.00;0.62;0.00;0.00;0.62;2.47;1.70;;;17.80;20.50;;;;;;2249345;61;20371;-58
2024/01/08 07:36:09;0.00;0.00;0.62;0.00;0.00;0.62;2.00;1.40;;;17.80;20.50;;;;;;2249666;61;20407;-57
2024/01/08 07:38:55;0.00;0.00;0.62;0.00;0.00;0.62;2.30;1.50;;;17.80;20.50;;;;;;2249869;61;20805;-55
2024/01/08 07:41:39;0.00;0.00;0.62;0.00;0.00;0.62;1.90;1.27;;;17.80;20.50;;;;;;2249109;61;20395;-58
2024/01/08 07:44:24;0.00;0.00;0.62;0.00;0.00;0.62;1.67;1.10;;;17.80;20.40;;;;;;2249365;61;20892;-56
2024/01/08 07:47:08;0.00;0.00;0.62;0.00;0.00;0.62;2.30;1.50;;;17.80;20.40;;;;;;2249473;61;20435;-57
2024/01/08 07:49:54;0.00;0.00;0.62;0.00;0.00;0.62;1.90;1.23;;;17.80;20.40;;;;;;2249592;61;20384;-58
2024/01/08 07:52:39;0.00;0.00;0.62;0.00;0.00;0.62;2.00;1.30;;;17.70;20.30;;;;;;2249082;61;20403;-55
2024/01/08 07:55:25;0.00;0.00;0.62;0.00;0.00;0.62;2.70;1.60;;;17.70;20.30;;;;;;2249482;61;20363;-53
2024/01/08 07:58:13;0.00;0.00;0.62;0.00;0.00;0.62;1.70;1.10;;;17.70;20.30;;;;;;2249734;61;20363;-66
2024/01/08 08:00:58;0.00;0.00;0.62;0.00;0.00;0.62;2.13;1.23;;;17.80;20.40;;;;;;2249477;61;20390;-59
2024/01/08 08:03:42;0.00;0.00;0.62;0.00;0.00;0.62;1.70;1.30;;;17.70;20.30;;;;;;2249212;61;20456;-59
2024/01/08 08:06:27;0.00;0.00;0.62;0.00;0.00;0.62;2.03;1.37;;;17.70;20.30;;;;;;2249183;61;20423;-58
2024/01/08 08:09:11;0.00;0.00;0.62;0.00;0.00;0.62;1.93;1.20;;;17.70;20.30;;;;;;2249505;61;20388;-56
2024/01/08 08:11:57;0.00;0.00;0.62;0.00;0.00;0.62;1.97;1.40;;;17.70;20.30;;;;;;2248906;61;20396;-54
2024/01/08 08:14:43;0.00;0.00;0.62;0.00;0.00;0.62;2.00;1.40;;;17.70;20.30;;;;;;2249796;61;20378;-57
2024/01/08 08:17:28;0.00;0.00;0.62;0.00;0.00;0.62;2.23;1.53;;;17.70;20.30;;;;;;2253239;61;20386;-59
2024/01/08 08:20:13;0.00;0.00;0.62;0.00;0.00;0.62;2.00;1.20;;;17.70;20.30;;;;;;2253023;61;20363;-56
2024/01/08 08:22:59;0.00;0.00;0.62;0.00;0.00;0.62;2.37;1.60;;;17.70;20.30;;;;;;2252943;61;20784;-58
2024/01/08 08:25:44;0.00;0.00;0.62;0.00;0.00;0.62;2.43;1.50;;;17.70;20.30;;;;;;2253532;61;20410;-57
2024/01/08 08:28:30;0.00;0.00;0.62;0.00;0.00;0.62;3.10;1.73;;;17.70;20.30;;;;;;2252421;61;20386;-54
2024/01/08 08:31:15;0.00;0.00;0.62;0.00;0.00;0.62;2.13;1.30;;;17.70;20.30;;;;;;2252886;61;20849;-54
2024/01/08 08:33:59;0.00;0.00;0.62;0.00;0.00;0.62;3.20;1.40;;;17.70;20.20;;;;;;2253589;61;20374;-57
2024/01/08 08:36:44;0.00;0.00;0.62;0.00;0.00;0.62;2.30;1.50;;;17.70;20.20;;;;;;2253250;61;20370;-56
2024/01/08 08:39:28;0.00;0.00;0.62;0.00;0.00;0.62;2.47;1.80;;;17.70;20.20;;;;;;2254088;61;20366;-56
2024/01/08 08:42:14;0.00;0.00;0.62;0.00;0.00;0.62;2.37;1.77;;;17.70;20.20;;;;;;2253598;61;20801;-53
2024/01/08 08:44:59;0.00;0.00;0.62;0.00;0.00;0.62;2.90;2.17;;;17.70;20.20;;;;;;2253907;61;20366;-57
2024/01/08 08:47:44;0.00;0.00;0.62;0.00;0.00;0.62;3.63;2.97;;;17.70;20.10;;;;;;2254058;61;20421;-53
2024/01/08 08:50:29;0.00;0.00;0.62;0.00;0.00;0.62;2.17;1.67;;;17.70;20.00;;;;;;2253584;61;20450;-56
2024/01/08 08:53:13;0.00;0.00;0.62;0.00;0.00;0.62;3.23;2.10;;;17.70;20.00;;;;;;2253461;61;20401;-57
2024/01/08 08:55:58;0.00;0.00;0.62;0.00;0.00;0.62;4.30;2.77;;;17.70;20.00;;;;;;2253842;61;20387;-57
2024/01/08 08:58:42;0.00;0.00;0.62;0.00;0.00;0.62;3.43;2.53;;;17.70;20.00;;;;;;2253370;61;20366;-57
2024/01/08 09:01:29;0.00;0.00;0.62;0.00;0.00;0.62;6.03;2.50;;;17.70;19.90;;;;;;2253810;61;20440;-56
2024/01/08 09:04:13;0.00;0.00;0.62;0.00;0.00;0.62;3.87;2.93;;;17.70;19.80;;;;;;2253642;61;20371;-56
2024/01/08 09:06:58;0.00;0.00;0.62;0.00;0.00;0.62;3.73;2.80;;;17.70;19.80;;;;;;2253412;61;20382;-57
2024/01/08 09:09:42;0.00;0.00;0.62;0.00;0.00;0.62;5.47;4.33;;;17.70;19.70;;;;;;2253618;61;20362;-57
2024/01/08 09:12:27;0.00;0.00;0.62;0.00;0.00;0.62;4.47;3.30;;;17.70;19.70;;;;;;2253258;61;20385;-57
2024/01/08 09:15:12;0.00;0.00;0.62;0.00;0.00;0.62;4.97;3.30;;;17.70;19.60;;;;;;2253393;61;20367;-56
2024/01/08 09:17:57;0.00;0.00;0.62;0.00;0.00;0.62;3.40;2.90;;;17.70;19.60;;;;;;2253611;61;20362;-54
2024/01/08 09:20:42;0.00;0.00;0.62;0.00;0.00;0.62;5.67;3.70;;;17.70;19.60;;;;;;2253047;61;20437;-57
2024/01/08 09:23:27;0.00;0.00;0.62;0.00;0.00;0.62;4.80;3.43;;;17.70;19.60;;;;;;2253112;61;20860;-56
2024/01/08 09:26:11;0.00;0.00;0.62;0.00;0.00;0.62;3.80;3.30;;;17.70;19.60;;;;;;2253574;61;20945;-56
2024/01/08 09:28:56;0.00;0.00;0.62;0.00;0.00;0.62;4.90;3.77;;;17.70;19.60;;;;;;2253009;61;20414;-61
2024/01/08 09:31:41;0.00;0.00;0.62;0.00;0.00;0.62;4.47;3.17;;;17.70;19.70;;;;;;2253164;61;20378;-53
2024/01/08 09:34:26;0.00;0.00;0.62;0.00;0.00;0.62;3.80;2.67;;;17.80;19.80;;;;;;2253566;61;20860;-56
2024/01/08 09:37:11;0.00;0.00;0.62;0.00;0.00;0.62;3.80;3.23;;;17.80;19.80;;;;;;2253331;61;20379;-53
2024/01/08 09:39:56;0.00;0.00;0.62;0.00;0.00;0.62;4.03;3.00;;;17.80;19.70;;;;;;2253121;61;21061;-56
2024/01/08 09:42:40;0.00;0.00;0.62;0.00;0.00;0.62;4.13;2.90;;;17.80;19.80;;;;;;2252704;61;20421;-59
2024/01/08 09:45:28;0.00;0.00;0.62;0.00;0.00;0.62;3.60;2.67;;;17.80;19.70;;;;;;2253207;61;20370;-58
2024/01/08 09:48:12;0.00;0.00;0.62;0.00;0.00;0.62;3.83;2.60;;;17.80;19.80;;;;;;2253306;61;20445;-58
2024/01/08 09:51:03;0.00;0.00;0.62;0.00;0.00;0.62;4.57;3.40;;;17.80;19.70;;;;;;2253296;61;20511;-56
2024/01/08 09:53:49;0.00;0.00;0.62;0.00;0.00;0.62;3.70;2.77;;;17.80;19.70;;;;;;2253171;61;20509;-57
2024/01/08 09:56:34;0.00;0.00;0.62;0.00;0.00;0.62;4.07;3.07;;;17.80;19.70;;;;;;2253753;61;20362;-54
2024/01/08 09:59:18;0.00;0.00;0.62;0.00;0.00;0.62;3.53;2.53;;;17.80;19.70;;;;;;2253318;61;20370;-62
2024/01/08 10:02:04;0.00;0.00;0.62;0.00;0.00;0.62;2.70;2.10;;;17.80;19.70;;;;;;2253103;61;20385;-57
2024/01/08 10:04:49;0.00;0.00;0.62;0.00;0.00;0.62;3.70;2.93;;;17.90;19.80;;;;;;2253552;61;20358;-55
2024/01/08 10:07:36;0.00;0.00;0.62;0.00;0.00;0.62;2.80;2.30;;;17.90;19.80;;;;;;2253601;61;20472;-56
2024/01/08 10:10:22;0.00;0.00;0.62;0.00;0.00;0.62;3.30;2.40;;;17.90;19.80;;;;;;2253532;61;20864;-58
2024/01/08 10:13:11;0.00;0.00;0.62;0.00;0.00;0.62;3.00;2.33;;;17.90;19.80;;;;;;2253122;61;20896;-52
2024/01/08 10:15:57;0.00;0.00;0.62;0.00;0.00;0.62;3.70;2.37;;;17.90;20.30;;;;;;2253439;61;20402;-57
2024/01/08 10:18:44;0.00;0.00;0.62;0.00;0.00;0.62;2.87;2.33;;;17.90;19.70;;;;;;2253483;61;20422;-52
2024/01/08 10:21:29;0.00;0.00;0.62;0.00;0.00;0.62;2.90;2.03;;;18.00;19.80;;;;;;2253011;61;20402;-52
2024/01/08 10:24:15;0.00;0.00;0.62;0.00;0.00;0.62;3.70;2.30;;;17.90;19.70;;;;;;2253366;61;20366;-56
2024/01/08 10:27:01;0.00;0.00;0.62;0.00;0.00;0.62;2.67;2.07;;;18.00;19.80;;;;;;2253271;61;20938;-55
2024/01/08 10:29:45;0.00;0.00;0.62;0.00;0.00;0.62;2.80;2.10;;;18.00;19.80;;;;;;2253626;61;20431;-54
2024/01/08 10:32:30;0.00;0.00;0.62;0.00;0.00;0.62;3.23;2.27;;;18.00;19.80;;;;;;2252959;61;20386;-54
2024/01/08 10:35:16;0.00;0.00;0.62;0.00;0.00;0.62;3.13;2.40;;;18.00;19.80;;;;;;2253127;61;20915;-63
2024/01/08 10:38:01;0.00;0.00;0.62;0.00;0.00;0.62;2.77;2.00;;;18.00;19.70;;;;;;2253303;61;20407;-51
2024/01/08 10:40:47;0.00;0.00;0.62;0.00;0.00;0.62;2.67;2.00;;;18.00;19.60;;;;;;2253322;61;20456;-58
2024/01/08 10:43:32;0.00;0.00;0.62;0.00;0.00;0.62;3.00;2.00;;;18.00;19.70;;;;;;2252810;61;20371;-57
2024/01/08 10:46:18;0.00;0.00;0.62;0.00;0.00;0.62;2.60;2.10;;;18.00;19.60;;;;;;2253687;61;20900;-59
2024/01/08 10:49:07;0.00;0.00;0.62;0.00;0.00;0.62;2.83;2.27;;;18.00;19.60;;;;;;2252874;61;20424;-57
2024/01/08 10:51:53;0.00;0.00;0.62;0.00;0.00;0.62;2.90;2.07;;;18.10;19.70;;;;;;2252953;61;20391;-58